Time;durP1;ratioP1;P1;durP2;ratioP2;P2;SDS_P1;SDS_P2;PMS_P1;PMS_P2;Temp;Humidity;BMP_temperature;BMP_pressure;BME280_temperature;BME280_humidity;BME280_pressure;Samples;Min_cycle;Max_cycle;Signal;HPM_P1;HPM_P2
2021/05/24 00:02:13;;;;;;;4.82;3.15;;;10.50;99.90;;;;;;5144513;27;20039;-77
2021/05/24 00:04:39;;;;;;;5.90;3.45;;;10.60;99.90;;;;;;5127349;27;20377;-78
2021/05/24 00:07:06;;;;;;;5.82;3.00;;;10.60;99.90;;;;;;5124608;27;20121;-77
2021/05/24 00:09:32;;;;;;;6.60;2.83;;;10.60;99.90;;;;;;5116257;27;20035;-80
2021/05/24 00:11:59;;;;;;;5.05;3.25;;;10.60;99.90;;;;;;5138850;27;20046;-77
2021/05/24 00:14:26;;;;;;;5.78;3.13;;;10.60;99.90;;;;;;5135529;27;20537;-76
2021/05/24 00:16:52;;;;;;;6.97;3.45;;;10.60;99.90;;;;;;5144836;27;20414;-78
2021/05/24 00:19:18;;;;;;;5.80;3.17;;;10.60;99.90;;;;;;5120832;27;20043;-77
2021/05/24 00:21:44;;;;;;;5.40;3.25;;;10.60;99.90;;;;;;5118435;27;20471;-76
2021/05/24 00:24:10;;;;;;;7.82;3.60;;;10.60;99.90;;;;;;5137631;27;20035;-77
2021/05/24 00:26:37;;;;;;;4.85;3.10;;;10.60;99.90;;;;;;5117144;27;20540;-77
2021/05/24 00:29:04;;;;;;;6.60;3.28;;;10.60;99.90;;;;;;5100091;27;20110;-79
2021/05/24 00:31:30;;;;;;;4.78;3.00;;;10.60;99.90;;;;;;5144768;27;20041;-76
2021/05/24 00:33:56;;;;;;;4.68;3.50;;;10.60;99.90;;;;;;5137601;27;20472;-77
2021/05/24 00:36:22;;;;;;;;;;;10.60;99.90;;;;;;5125364;27;20072;-78
2021/05/24 00:38:48;;;;;;;5.05;3.13;;;10.60;99.90;;;;;;5136825;27;19919;-75
2021/05/24 00:41:14;;;;;;;4.38;3.10;;;10.60;99.90;;;;;;5141505;27;20036;-76
2021/05/24 00:43:40;;;;;;;5.90;3.20;;;10.60;99.90;;;;;;5123190;27;20046;-76
2021/05/24 00:46:12;;;;;;;7.93;3.50;;;10.60;99.90;;;;;;5123048;27;20095;-78
2021/05/24 00:48:37;;;;;;;5.82;3.15;;;10.60;99.90;;;;;;5109053;27;20441;-78
2021/05/24 00:51:03;;;;;;;9.38;4.03;;;10.60;99.90;;;;;;5130120;27;20526;-76
2021/05/24 00:53:30;;;;;;;3.90;3.15;;;10.60;99.90;;;;;;5126596;27;20062;-78
2021/05/24 00:55:56;;;;;;;3.55;3.10;;;10.60;99.90;;;;;;5135280;27;20387;-75
2021/05/24 00:58:22;;;;;;;7.07;3.25;;;10.70;99.90;;;;;;5108220;27;20049;-77
2021/05/24 01:00:49;;;;;;;5.85;3.67;;;10.70;99.90;;;;;;5129200;27;20043;-80
2021/05/24 01:03:16;;;;;;;4.10;2.95;;;10.70;99.90;;;;;;5135861;27;20035;-80
2021/05/24 01:05:44;;;;;;;5.65;3.30;;;10.80;99.90;;;;;;5146735;27;20032;-76
2021/05/24 01:08:12;;;;;;;5.93;3.17;;;10.80;99.90;;;;;;5144460;27;20037;-75
2021/05/24 01:10:38;;;;;;;4.90;3.42;;;10.80;99.90;;;;;;5138465;27;20041;-76
2021/05/24 01:13:07;;;;;;;7.88;3.70;;;10.80;99.90;;;;;;5125170;27;20131;-76
2021/05/24 01:15:34;;;;;;;8.63;3.15;;;10.70;99.90;;;;;;5129140;27;20038;-75
2021/05/24 01:18:00;;;;;;;5.20;3.17;;;10.60;99.90;;;;;;5107796;27;20467;-78
2021/05/24 01:20:28;;;;;;;5.30;3.70;;;10.60;99.90;;;;;;5136684;27;20122;-74
2021/05/24 01:25:37;;;;;;;5.85;3.45;;;10.50;99.90;;;;;;5117228;27;20031;-76
2021/05/24 01:28:05;;;;;;;5.28;3.47;;;10.40;99.90;;;;;;5120168;27;20054;-75
2021/05/24 01:30:32;;;;;;;5.78;3.13;;;10.40;99.90;;;;;;5136268;27;20050;-75
2021/05/24 01:32:58;;;;;;;5.68;3.08;;;10.30;99.90;;;;;;5106407;27;20031;-75
2021/05/24 01:35:24;;;;;;;4.43;3.10;;;10.30;99.90;;;;;;5119460;27;21706;-76
2021/05/24 01:37:50;;;;;;;4.28;3.00;;;10.20;99.90;;;;;;5108058;27;20109;-76
2021/05/24 01:40:16;;;;;;;5.50;3.13;;;10.20;99.90;;;;;;5117004;27;20100;-75
2021/05/24 01:42:43;;;;;;;5.32;3.40;;;10.10;99.90;;;;;;5116598;27;20104;-76
2021/05/24 01:45:09;;;;;;;5.78;3.05;;;10.10;99.90;;;;;;5107141;27;20043;-74
2021/05/24 01:47:35;;;;;;;5.32;3.58;;;10.10;99.90;;;;;;5134606;27;20049;-75
2021/05/24 01:50:01;;;;;;;4.38;2.85;;;10.10;99.90;;;;;;5114238;27;20031;-77
2021/05/24 01:52:26;;;;;;;4.80;2.85;;;10.00;99.90;;;;;;5125197;27;20063;-76
2021/05/24 01:54:52;;;;;;;5.55;2.92;;;10.00;99.90;;;;;;5105867;27;20083;-76
2021/05/24 01:57:18;;;;;;;5.50;3.15;;;10.00;99.90;;;;;;5114457;27;20039;-77
2021/05/24 01:59:44;;;;;;;4.35;3.00;;;9.90;99.90;;;;;;5116091;27;20036;-76
2021/05/24 02:02:10;;;;;;;6.60;3.30;;;9.90;99.90;;;;;;5139674;27;20032;-76
2021/05/24 02:04:36;;;;;;;7.13;3.60;;;9.90;99.90;;;;;;5140677;27;20125;-77
2021/05/24 02:07:02;;;;;;;5.45;3.25;;;9.90;99.90;;;;;;5132172;27;20361;-76
2021/05/24 02:09:29;;;;;;;6.10;3.78;;;9.90;99.90;;;;;;5112940;27;20472;-75
2021/05/24 02:11:55;;;;;;;5.38;3.53;;;9.90;99.90;;;;;;5134687;27;20484;-75
2021/05/24 02:14:43;;;;;;;5.55;3.58;;;9.90;99.90;;;;;;5126392;27;20053;-75
2021/05/24 02:17:09;;;;;;;6.95;3.42;;;9.90;99.90;;;;;;5146856;27;20047;-76
2021/05/24 02:19:36;;;;;;;;;;;10.00;99.90;;;;;;5124228;27;20055;-75
2021/05/24 02:22:02;;;;;;;6.28;3.78;;;10.00;99.90;;;;;;5144148;27;19923;-77
2021/05/24 02:24:29;;;;;;;7.22;3.78;;;10.10;99.90;;;;;;5118006;27;20074;-77
2021/05/24 02:26:55;;;;;;;6.35;4.05;;;10.10;99.90;;;;;;5137719;27;20045;-77
2021/05/24 02:29:20;;;;;;;8.18;4.25;;;10.10;99.90;;;;;;5122963;27;20597;-75
2021/05/24 02:31:46;;;;;;;7.00;3.95;;;10.20;99.90;;;;;;5114563;27;20031;-74
2021/05/24 02:34:12;;;;;;;7.00;3.92;;;10.20;99.90;;;;;;5125105;27;20038;-78
2021/05/24 02:36:38;;;;;;;5.57;4.10;;;10.20;99.90;;;;;;5099534;27;21786;-78
2021/05/24 02:39:07;;;;;;;10.57;4.15;;;10.20;99.90;;;;;;5130673;27;20039;-74
2021/05/24 02:41:34;;;;;;;6.03;3.85;;;10.20;99.90;;;;;;5127923;27;20061;-75
2021/05/24 02:43:59;;;;;;;5.88;3.97;;;10.20;99.90;;;;;;5142251;27;20045;-76
2021/05/24 02:46:25;;;;;;;5.45;3.17;;;10.10;99.90;;;;;;5121202;27;20035;-77
2021/05/24 02:48:51;;;;;;;6.72;3.55;;;10.20;99.90;;;;;;5122029;27;20041;-76
2021/05/24 02:51:17;;;;;;;5.55;3.45;;;10.20;99.90;;;;;;5132749;27;20046;-76
2021/05/24 02:53:43;;;;;;;4.57;3.33;;;10.20;99.90;;;;;;5137384;27;20042;-77
2021/05/24 02:56:09;;;;;;;4.38;3.17;;;10.20;99.90;;;;;;5119409;27;20049;-78
2021/05/24 02:58:35;;;;;;;6.80;3.47;;;10.20;99.90;;;;;;5140473;27;20206;-75
2021/05/24 03:01:00;;;;;;;6.60;3.97;;;10.20;99.90;;;;;;5118903;27;20447;-76
2021/05/24 03:03:29;;;;;;;4.82;3.28;;;10.20;99.90;;;;;;5131888;27;20039;-74
2021/05/24 03:05:54;;;;;;;5.05;3.35;;;10.20;99.90;;;;;;5132153;27;20480;-76
2021/05/24 03:08:20;;;;;;;5.88;3.25;;;10.30;99.90;;;;;;5117008;27;20064;-75
2021/05/24 03:10:46;;;;;;;7.95;3.30;;;10.30;99.90;;;;;;5116397;27;20042;-75
2021/05/24 03:13:12;;;;;;;5.38;3.35;;;10.30;99.90;;;;;;5117979;27;20468;-75
2021/05/24 03:15:38;;;;;;;4.75;3.25;;;10.30;99.90;;;;;;5137586;27;20101;-80
2021/05/24 03:18:04;;;;;;;5.95;3.45;;;10.40;99.90;;;;;;5138121;27;20035;-79
2021/05/24 03:20:30;;;;;;;5.07;3.53;;;10.40;99.90;;;;;;5112993;27;20057;-77
2021/05/24 03:22:56;;;;;;;7.50;3.25;;;10.40;99.90;;;;;;5126281;27;20062;-75
2021/05/24 03:25:22;;;;;;;6.22;3.58;;;10.40;99.90;;;;;;5117773;27;20045;-76
2021/05/24 03:27:48;;;;;;;6.88;3.20;;;10.40;99.90;;;;;;5140423;27;20379;-73
2021/05/24 03:30:15;;;;;;;7.18;3.17;;;10.40;99.90;;;;;;5134915;27;20068;-75
2021/05/24 03:32:41;;;;;;;6.45;3.75;;;10.40;99.90;;;;;;5141307;27;20087;-76
2021/05/24 03:35:09;;;;;;;6.72;3.58;;;10.30;99.90;;;;;;5121947;27;20440;-76
2021/05/24 03:37:35;;;;;;;6.18;3.63;;;10.30;99.90;;;;;;5116934;27;20103;-74
2021/05/24 03:40:01;;;;;;;5.70;3.58;;;10.20;99.90;;;;;;5136406;27;20133;-74
2021/05/24 03:42:27;;;;;;;7.00;3.67;;;10.10;99.90;;;;;;5144525;27;20118;-74
2021/05/24 03:44:53;;;;;;;7.47;3.47;;;10.10;99.90;;;;;;5121373;27;20149;-75
2021/05/24 03:47:19;;;;;;;4.90;3.08;;;10.10;99.90;;;;;;5124157;27;20054;-74
2021/05/24 03:49:45;;;;;;;5.75;3.38;;;10.00;99.90;;;;;;5133535;27;20129;-73
2021/05/24 03:52:13;;;;;;;5.05;3.15;;;10.00;99.90;;;;;;5140154;27;20115;-75
2021/05/24 03:54:39;;;;;;;5.20;3.80;;;10.00;99.90;;;;;;5133621;27;20041;-75
2021/05/24 03:57:07;;;;;;;4.78;3.47;;;10.00;99.90;;;;;;5120413;27;20042;-75
2021/05/24 03:59:32;;;;;;;4.82;3.30;;;10.00;99.90;;;;;;5110557;27;20440;-74
2021/05/24 04:01:58;;;;;;;3.83;2.78;;;10.00;99.90;;;;;;5131412;27;20031;-73
2021/05/24 04:04:24;;;;;;;4.78;3.28;;;10.00;99.90;;;;;;5112489;28;20046;-72
2021/05/24 04:06:54;;;;;;;7.30;3.10;;;10.10;99.90;;;;;;5119298;28;20035;-74
2021/05/24 04:09:20;;;;;;;5.55;3.13;;;10.10;99.90;;;;;;5120468;27;20055;-74
2021/05/24 04:11:46;;;;;;;4.97;3.25;;;10.10;99.90;;;;;;5138257;27;20035;-75
2021/05/24 04:14:12;;;;;;;4.78;3.03;;;10.10;99.90;;;;;;5131234;27;20042;-75
2021/05/24 04:16:37;;;;;;;7.95;3.70;;;10.10;99.90;;;;;;5143893;27;20198;-73
2021/05/24 04:19:09;;;;;;;6.05;3.42;;;10.20;99.90;;;;;;5145750;27;20035;-76
2021/05/24 04:21:35;;;;;;;6.53;3.78;;;10.20;99.90;;;;;;5139326;27;20049;-74
2021/05/24 04:24:01;;;;;;;5.88;2.90;;;10.20;99.90;;;;;;5134120;27;20742;-74
2021/05/24 04:26:28;;;;;;;5.88;3.38;;;10.30;99.90;;;;;;5138492;27;20035;-74
2021/05/24 04:28:53;;;;;;;4.20;2.92;;;10.30;99.90;;;;;;5131627;27;20042;-73
2021/05/24 04:31:19;;;;;;;6.38;4.05;;;10.20;99.90;;;;;;5133050;27;20035;-73
2021/05/24 04:33:45;;;;;;;6.80;3.30;;;10.20;99.90;;;;;;5121250;27;20535;-73
2021/05/24 04:36:11;;;;;;;4.82;3.30;;;10.20;99.90;;;;;;5115902;27;20058;-75
2021/05/24 04:38:36;;;;;;;4.57;2.97;;;10.20;99.90;;;;;;5126928;27;20030;-76
2021/05/24 04:41:02;;;;;;;4.38;2.97;;;10.20;99.90;;;;;;5143867;27;20037;-73
2021/05/24 04:43:29;;;;;;;7.45;4.32;;;10.20;99.90;;;;;;5145269;27;20035;-74
2021/05/24 04:45:56;;;;;;;4.70;2.85;;;10.30;99.90;;;;;;5135721;27;20535;-74
2021/05/24 04:48:22;;;;;;;5.97;3.35;;;10.30;99.90;;;;;;5141011;27;20031;-74
2021/05/24 04:50:48;;;;;;;6.45;3.38;;;10.30;99.90;;;;;;5116724;27;20057;-73
2021/05/24 04:53:14;;;;;;;5.57;3.22;;;10.30;99.90;;;;;;5123648;27;20058;-76
2021/05/24 04:55:39;;;;;;;5.57;3.30;;;10.30;99.90;;;;;;5124263;27;20023;-73
2021/05/24 04:58:06;;;;;;;4.28;2.95;;;10.40;99.90;;;;;;5134873;27;20068;-75
2021/05/24 05:00:33;;;;;;;5.55;2.85;;;10.40;99.90;;;;;;5117089;27;20039;-72
2021/05/24 05:03:00;;;;;;;5.63;2.90;;;10.40;99.90;;;;;;5145729;27;20027;-75
2021/05/24 05:05:26;;;;;;;4.93;2.70;;;10.50;99.90;;;;;;5121585;27;20039;-74
2021/05/24 05:07:52;;;;;;;5.35;3.30;;;10.50;99.90;;;;;;5148423;27;20047;-74
2021/05/24 05:10:18;;;;;;;6.00;2.97;;;10.50;99.90;;;;;;5116262;27;20054;-74
2021/05/24 05:12:44;;;;;;;4.28;2.80;;;10.60;99.90;;;;;;5141773;27;20035;-74
2021/05/24 05:15:10;;;;;;;3.80;2.63;;;10.60;99.90;;;;;;5120542;27;20050;-74
2021/05/24 05:17:36;;;;;;;4.90;2.80;;;10.60;99.90;;;;;;5143774;27;20073;-74
2021/05/24 05:20:03;;;;;;;5.28;2.80;;;10.60;99.90;;;;;;5146080;27;20058;-73
2021/05/24 05:22:29;;;;;;;3.88;2.80;;;10.70;99.90;;;;;;5148506;27;20034;-73
2021/05/24 05:24:55;;;;;;;5.10;3.03;;;10.80;99.90;;;;;;5135927;27;20039;-74
2021/05/24 05:27:21;;;;;;;5.75;3.10;;;10.80;99.90;;;;;;5135854;27;20049;-73
2021/05/24 05:29:47;;;;;;;5.28;2.47;;;10.80;99.90;;;;;;5128503;27;20038;-75
2021/05/24 05:32:13;;;;;;;5.97;2.78;;;10.80;99.90;;;;;;5134289;27;20106;-74
2021/05/24 05:34:39;;;;;;;;;;;10.90;99.90;;;;;;5135628;27;20114;-73
2021/05/24 05:37:05;;;;;;;4.45;2.42;;;10.90;99.90;;;;;;5133492;27;20364;-74
2021/05/24 05:39:31;;;;;;;5.43;2.50;;;10.90;99.90;;;;;;5132109;27;20036;-74
2021/05/24 05:41:57;;;;;;;5.38;2.40;;;11.00;99.90;;;;;;5127004;27;20035;-73
2021/05/24 05:44:23;;;;;;;4.03;2.30;;;11.00;99.90;;;;;;5139716;27;20050;-74
2021/05/24 05:46:49;;;;;;;7.35;2.38;;;11.10;99.90;;;;;;5138769;27;20114;-74
2021/05/24 05:49:14;;;;;;;5.10;2.67;;;11.20;99.90;;;;;;5132480;27;20035;-75
2021/05/24 05:51:40;;;;;;;3.25;2.20;;;11.30;99.90;;;;;;5137880;27;20043;-78
2021/05/24 05:54:06;;;;;;;5.15;2.20;;;11.40;99.90;;;;;;5135987;27;20039;-73
2021/05/24 05:56:32;;;;;;;4.38;2.55;;;11.50;99.90;;;;;;5132654;27;20035;-74
2021/05/24 05:58:58;;;;;;;;;;;11.50;99.90;;;;;;5118115;27;20067;-74
2021/05/24 06:01:24;;;;;;;4.55;2.20;;;11.60;99.90;;;;;;5132931;27;19969;-73
2021/05/24 06:03:50;;;;;;;4.63;2.38;;;11.70;99.90;;;;;;5137394;27;20035;-74
2021/05/24 06:06:15;;;;;;;3.38;2.20;;;11.80;99.90;;;;;;5140054;27;20058;-74
2021/05/24 06:08:41;;;;;;;5.00;2.45;;;11.80;99.90;;;;;;5125704;27;20118;-74
2021/05/24 06:11:07;;;;;;;3.88;2.40;;;11.80;99.90;;;;;;5123866;27;20035;-76
2021/05/24 06:13:33;;;;;;;;;;;11.90;99.90;;;;;;5119566;27;20523;-75
2021/05/24 06:15:59;;;;;;;2.95;1.92;;;12.00;99.90;;;;;;5141284;27;20018;-73
2021/05/24 06:18:25;;;;;;;3.13;2.28;;;12.20;99.90;;;;;;5131853;27;20039;-73
2021/05/24 06:20:51;;;;;;;5.15;2.25;;;12.30;99.90;;;;;;5116577;27;20063;-74
2021/05/24 06:23:18;;;;;;;2.75;1.80;;;12.30;99.90;;;;;;5148557;27;20031;-74
2021/05/24 06:25:44;;;;;;;5.15;2.05;;;12.40;99.90;;;;;;5113432;27;20126;-75
2021/05/24 06:28:12;;;;;;;3.58;2.38;;;12.40;99.90;;;;;;5133135;27;20027;-76
2021/05/24 06:30:38;;;;;;;4.05;1.70;;;12.60;99.90;;;;;;5137741;27;20034;-74
2021/05/24 06:33:04;;;;;;;4.57;1.80;;;12.70;99.90;;;;;;5136178;27;20070;-74
2021/05/24 06:35:30;;;;;;;;;;;12.80;99.90;;;;;;5142111;27;20113;-75
2021/05/24 06:37:56;;;;;;;3.35;2.17;;;12.80;99.90;;;;;;5139450;27;20002;-75
2021/05/24 06:40:22;;;;;;;3.30;2.03;;;13.00;99.90;;;;;;5119763;27;20146;-75
2021/05/24 06:42:48;;;;;;;2.55;1.77;;;13.00;99.90;;;;;;5144257;27;20429;-76
2021/05/24 06:45:19;;;;;;;3.78;1.77;;;13.10;99.90;;;;;;5141644;27;20031;-75
2021/05/24 06:47:45;;;;;;;4.50;1.90;;;13.10;99.90;;;;;;5113972;27;20050;-76
2021/05/24 06:50:11;;;;;;;3.85;1.52;;;13.10;99.90;;;;;;5112953;27;20035;-76
2021/05/24 06:52:37;;;;;;;2.70;1.70;;;13.20;99.90;;;;;;5135789;27;20100;-76
2021/05/24 06:55:04;;;;;;;3.85;1.70;;;13.30;99.90;;;;;;5114627;27;20031;-75
2021/05/24 06:57:30;;;;;;;2.92;1.40;;;13.30;99.90;;;;;;5142315;27;20058;-77
2021/05/24 06:59:56;;;;;;;4.75;1.73;;;13.50;99.90;;;;;;5123520;27;20027;-78
2021/05/24 07:02:22;;;;;;;4.43;1.88;;;13.60;99.90;;;;;;5108888;27;20027;-75
2021/05/24 07:04:47;;;;;;;3.47;1.85;;;13.60;99.90;;;;;;5140319;27;20091;-76
2021/05/24 07:07:13;;;;;;;6.10;1.85;;;13.70;99.90;;;;;;5125510;27;20066;-76
2021/05/24 07:09:39;;;;;;;3.13;1.77;;;13.80;99.90;;;;;;5104879;27;20047;-77
2021/05/24 07:12:06;;;;;;;3.88;1.55;;;13.90;99.90;;;;;;5113732;27;20053;-76
2021/05/24 07:14:32;;;;;;;3.20;2.10;;;14.00;99.90;;;;;;5118161;27;20046;-75
2021/05/24 07:16:57;;;;;;;2.78;1.60;;;14.10;99.90;;;;;;5149187;27;20039;-74
2021/05/24 07:19:23;;;;;;;;;;;14.10;99.90;;;;;;5135325;27;20038;-76
2021/05/24 07:21:49;;;;;;;4.47;1.90;;;14.10;99.90;;;;;;5123689;27;20325;-75
2021/05/24 07:24:15;;;;;;;;;;;14.20;99.90;;;;;;5105122;27;20123;-77
2021/05/24 07:26:41;;;;;;;3.80;1.73;;;14.30;99.90;;;;;;5126603;27;19915;-75
2021/05/24 07:29:07;;;;;;;3.50;1.50;;;14.40;99.90;;;;;;5122447;27;20039;-74
2021/05/24 07:31:33;;;;;;;4.57;1.88;;;14.60;99.90;;;;;;5140165;27;20479;-76
2021/05/24 07:33:59;;;;;;;3.35;1.75;;;14.70;99.90;;;;;;5136105;27;20033;-76
2021/05/24 07:36:25;;;;;;;2.50;1.70;;;14.80;99.90;;;;;;5121897;27;20510;-77
2021/05/24 07:38:50;;;;;;;3.85;1.58;;;14.90;99.90;;;;;;5136940;27;20100;-74
2021/05/24 07:41:16;;;;;;;;;;;15.00;99.90;;;;;;5125333;27;20451;-75
2021/05/24 07:43:42;;;;;;;4.32;1.80;;;15.00;99.90;;;;;;5133050;27;19919;-75
2021/05/24 07:46:08;;;;;;;;;;;15.00;99.90;;;;;;5117276;28;20032;-74
2021/05/24 07:48:36;;;;;;;2.50;1.50;;;15.00;99.90;;;;;;5130757;27;19968;-75
2021/05/24 07:51:03;;;;;;;2.88;1.73;;;15.00;99.90;;;;;;5133946;27;20114;-77
2021/05/24 07:53:29;;;;;;;3.47;1.70;;;15.10;99.90;;;;;;5095657;27;20508;-76
2021/05/24 07:55:55;;;;;;;6.43;1.83;;;15.20;99.90;;;;;;5119330;28;20035;-77
2021/05/24 07:58:20;;;;;;;;;;;15.00;99.90;;;;;;5120076;27;20038;-75
2021/05/24 08:00:46;;;;;;;2.60;1.50;;;15.20;99.90;;;;;;5115303;27;19930;-77
2021/05/24 08:03:12;;;;;;;;;;;15.20;99.90;;;;;;5118850;28;20035;-78
2021/05/24 08:05:38;;;;;;;3.35;1.90;;;15.40;99.90;;;;;;5140151;27;20264;-76
2021/05/24 08:08:04;;;;;;;;;;;15.30;99.90;;;;;;5118723;27;20027;-75
2021/05/24 08:10:30;;;;;;;3.75;2.00;;;15.30;99.90;;;;;;5121554;27;19926;-78
2021/05/24 08:12:55;;;;;;;;;;;15.20;99.90;;;;;;5151343;27;20420;-77
2021/05/24 08:15:29;;;;;;;3.08;1.77;;;15.10;99.90;;;;;;5120260;27;19960;-76
2021/05/24 08:17:58;;;;;;;2.45;1.83;;;15.00;99.90;;;;;;5129828;27;20039;-76
2021/05/24 08:20:24;;;;;;;3.97;2.20;;;15.00;99.90;;;;;;5143269;27;20071;-75
2021/05/24 08:22:50;;;;;;;4.10;2.40;;;14.90;99.90;;;;;;5125350;27;20069;-81
2021/05/24 08:25:16;;;;;;;5.25;2.20;;;14.70;99.90;;;;;;5113617;27;20059;-80
2021/05/24 08:27:42;;;;;;;;;;;14.60;99.90;;;;;;5144259;27;20484;-79
2021/05/24 08:30:09;;;;;;;4.23;2.37;;;14.40;99.90;;;;;;5140346;27;19919;-80
2021/05/24 08:32:35;;;;;;;3.80;2.03;;;14.20;99.90;;;;;;5152390;27;20603;-82
2021/05/24 08:35:02;;;;;;;3.75;2.72;;;14.00;99.90;;;;;;5151150;27;20030;-79
2021/05/24 08:37:28;;;;;;;3.50;2.58;;;13.70;99.90;;;;;;5142758;27;20039;-84
2021/05/24 08:39:54;;;;;;;6.10;3.10;;;13.30;99.90;;;;;;5126336;27;20035;-76
2021/05/24 08:42:19;;;;;;;3.97;2.60;;;12.90;99.90;;;;;;5140624;27;20059;-80
2021/05/24 08:44:48;;;;;;;5.82;3.42;;;12.60;99.90;;;;;;5122679;27;20452;-78
2021/05/24 08:47:14;;;;;;;4.68;2.90;;;12.30;99.90;;;;;;5121028;27;20471;-79
2021/05/24 08:49:40;;;;;;;8.25;3.10;;;12.00;99.90;;;;;;5134337;27;20130;-76
2021/05/24 08:52:06;;;;;;;6.28;2.97;;;11.90;99.90;;;;;;5123302;27;20031;-75
2021/05/24 08:54:36;;;;;;;4.55;2.60;;;11.70;99.90;;;;;;5137302;27;20046;-77
2021/05/24 08:57:03;;;;;;;4.88;2.40;;;11.70;99.90;;;;;;5140623;27;20069;-77
2021/05/24 08:59:29;;;;;;;3.00;2.30;;;11.80;99.90;;;;;;5146015;27;20042;-82
2021/05/24 09:01:54;;;;;;;5.25;2.60;;;11.70;99.90;;;;;;5140524;27;20035;-83
2021/05/24 09:04:20;;;;;;;3.63;2.50;;;11.70;99.90;;;;;;5130868;27;20065;-74
2021/05/24 09:06:49;;;;;;;;;;;11.70;99.90;;;;;;5131496;27;20093;-79
2021/05/24 09:09:16;;;;;;;4.25;2.22;;;11.70;99.90;;;;;;5123593;27;19919;-83
2021/05/24 09:11:44;;;;;;;3.80;2.35;;;11.60;99.90;;;;;;5123255;27;20035;-81
2021/05/24 09:14:16;;;;;;;5.93;2.53;;;11.60;99.90;;;;;;5135015;27;20038;-78
2021/05/24 09:16:42;;;;;;;3.97;2.30;;;11.50;99.90;;;;;;5118321;27;20073;-80
2021/05/24 09:19:17;;;;;;;3.83;2.20;;;11.50;99.90;;;;;;5135946;27;20046;-82
2021/05/24 09:21:50;;;;;;;5.43;2.80;;;11.50;99.90;;;;;;5129134;27;20062;-80
2021/05/24 09:24:20;;;;;;;3.30;2.45;;;11.50;99.90;;;;;;5143438;27;20069;-78
2021/05/24 09:26:46;;;;;;;3.60;2.40;;;11.60;99.90;;;;;;5143687;27;20046;-77
2021/05/24 09:29:12;;;;;;;4.10;2.65;;;11.70;99.90;;;;;;5140066;27;20126;-78
2021/05/24 09:31:39;;;;;;;3.70;2.67;;;12.00;99.90;;;;;;5138855;27;20136;-81
2021/05/24 09:34:06;;;;;;;5.28;2.20;;;12.30;99.90;;;;;;5142855;27;20076;-78
2021/05/24 09:36:37;;;;;;;2.97;1.90;;;12.50;99.90;;;;;;5114223;27;20154;-73
2021/05/24 09:39:08;;;;;;;3.67;2.33;;;12.50;99.90;;;;;;5131843;27;20756;-72
2021/05/24 09:41:46;;;;;;;4.90;2.38;;;12.60;99.90;;;;;;5129957;27;20047;-74
2021/05/24 09:44:26;;;;;;;6.00;2.47;;;12.60;99.90;;;;;;5123568;27;20035;-73
2021/05/24 09:46:52;;;;;;;3.47;2.30;;;12.60;99.90;;;;;;5132531;27;20073;-75
2021/05/24 09:49:25;;;;;;;6.28;2.60;;;12.60;99.90;;;;;;5134813;27;20031;-78
2021/05/24 09:51:52;;;;;;;4.80;2.20;;;12.60;99.90;;;;;;5139924;27;20207;-81
2021/05/24 09:54:19;;;;;;;3.95;2.70;;;12.60;99.90;;;;;;5134540;27;20062;-77
2021/05/24 09:56:47;;;;;;;5.88;2.53;;;12.50;99.90;;;;;;5135976;27;20470;-79
2021/05/24 09:59:21;;;;;;;4.97;2.38;;;12.40;99.90;;;;;;5116261;27;20039;-77
2021/05/24 10:01:54;;;;;;;4.90;2.97;;;12.30;99.90;;;;;;5141222;27;20528;-79
2021/05/24 10:04:35;;;;;;;3.95;2.67;;;12.20;99.90;;;;;;5137056;27;20038;-76
2021/05/24 10:07:02;;;;;;;4.50;2.78;;;12.20;99.90;;;;;;5148336;27;20091;-79
2021/05/24 10:09:32;;;;;;;3.70;2.80;;;12.10;99.90;;;;;;5134980;27;20412;-82
2021/05/24 10:11:59;;;;;;;3.95;2.78;;;12.00;99.90;;;;;;5134078;27;20099;-77
2021/05/24 10:14:26;;;;;;;6.45;3.80;;;12.00;99.90;;;;;;5119528;27;20473;-75
2021/05/24 10:16:57;;;;;;;8.65;5.97;;;12.00;99.90;;;;;;5121479;27;20059;-83
2021/05/24 10:19:23;;;;;;;14.63;10.40;;;12.00;99.90;;;;;;5133618;27;20415;-77
2021/05/24 10:21:51;;;;;;;9.15;7.05;;;12.00;99.90;;;;;;5139725;27;20042;-77
2021/05/24 10:24:21;;;;;;;4.57;2.97;;;12.00;99.90;;;;;;5139388;27;20031;-78
2021/05/24 10:26:47;;;;;;;8.23;5.68;;;12.00;99.90;;;;;;5113882;27;20042;-77
2021/05/24 10:29:14;;;;;;;8.43;5.60;;;12.20;99.90;;;;;;5132471;27;20031;-80
2021/05/24 10:31:41;;;;;;;5.90;3.17;;;12.30;99.90;;;;;;5131226;27;20045;-76
2021/05/24 10:34:13;;;;;;;3.10;2.65;;;12.50;99.90;;;;;;5130994;27;20088;-76
2021/05/24 10:36:40;;;;;;;5.63;2.90;;;12.80;99.90;;;;;;5135847;27;20057;-78
2021/05/24 10:39:22;;;;;;;4.55;2.60;;;13.10;99.90;;;;;;5138951;27;20047;-79
2021/05/24 10:41:54;;;;;;;4.47;2.55;;;13.40;99.90;;;;;;5115715;27;20042;-76
2021/05/24 10:44:37;;;;;;;6.15;2.47;;;13.50;99.90;;;;;;5119301;27;20031;-80
2021/05/24 10:47:27;;;;;;;4.82;2.58;;;13.70;99.90;;;;;;5132491;27;20420;-79
2021/05/24 10:50:17;;;;;;;3.70;2.22;;;13.90;99.90;;;;;;5134812;27;20102;-75
2021/05/24 10:52:59;;;;;;;3.67;2.78;;;14.00;99.90;;;;;;5115506;27;20035;-79
2021/05/24 10:55:25;;;;;;;4.25;2.40;;;14.10;99.90;;;;;;5125088;27;20063;-80
2021/05/24 10:57:59;;;;;;;3.40;2.50;;;14.00;99.90;;;;;;5137731;27;20034;-78
2021/05/24 11:00:25;;;;;;;3.08;2.08;;;14.30;99.90;;;;;;5113106;27;20043;-77
2021/05/24 11:02:53;;;;;;;4.68;2.97;;;14.60;99.90;;;;;;5111800;27;20042;-77
2021/05/24 11:05:31;;;;;;;3.75;2.30;;;14.80;99.90;;;;;;5137719;27;20062;-77
2021/05/24 11:08:03;;;;;;;4.32;2.40;;;14.90;99.90;;;;;;5134897;27;20031;-77
2021/05/24 11:10:51;;;;;;;4.03;2.30;;;15.00;99.90;;;;;;5133662;27;20061;-79
2021/05/24 11:13:17;;;;;;;3.72;2.47;;;14.90;99.90;;;;;;5130109;27;20384;-77
2021/05/24 11:15:45;;;;;;;3.60;2.53;;;14.90;99.90;;;;;;5131068;27;20789;-77
2021/05/24 11:18:21;;;;;;;3.63;2.38;;;14.90;99.90;;;;;;5139073;27;20035;-76
2021/05/24 11:20:57;;;;;;;4.13;2.70;;;14.90;99.90;;;;;;5127809;27;20039;-74
2021/05/24 11:23:36;;;;;;;6.05;2.35;;;14.70;99.90;;;;;;5111572;27;20043;-75
2021/05/24 11:26:29;;;;;;;5.68;2.58;;;14.60;99.90;;;;;;5128275;27;20039;-76
2021/05/24 11:29:14;;;;;;;5.25;2.55;;;14.60;99.90;;;;;;5128318;27;20054;-79
2021/05/24 11:31:43;;;;;;;4.05;2.40;;;14.70;99.90;;;;;;5113407;27;20035;-77
2021/05/24 11:34:28;;;;;;;3.63;2.58;;;14.90;99.90;;;;;;5136216;27;20052;-75
2021/05/24 11:37:03;;;;;;;4.30;2.70;;;15.00;99.90;;;;;;5128560;27;20038;-77
2021/05/24 11:39:33;;;;;;;4.30;2.45;;;14.90;99.90;;;;;;5133008;27;20045;-77
2021/05/24 11:42:04;;;;;;;5.18;2.40;;;14.90;99.90;;;;;;5132557;27;20172;-78
2021/05/24 11:44:41;;;;;;;2.75;2.10;;;14.90;99.90;;;;;;5146287;27;20041;-76
2021/05/24 11:47:14;;;;;;;4.82;2.67;;;15.00;99.90;;;;;;5134150;27;20487;-80
2021/05/24 11:49:42;;;;;;;4.28;2.30;;;15.00;99.90;;;;;;5143578;27;20034;-79
2021/05/24 11:52:11;;;;;;;4.82;2.60;;;14.90;99.90;;;;;;5138061;27;20089;-76
2021/05/24 11:54:37;;;;;;;4.70;2.40;;;14.90;99.90;;;;;;5141923;27;20058;-78
2021/05/24 11:57:06;;;;;;;3.30;2.22;;;14.90;99.90;;;;;;5135419;27;20480;-79
2021/05/24 11:59:33;;;;;;;5.95;3.70;;;14.90;99.90;;;;;;5145405;27;20030;-78
2021/05/24 12:02:02;;;;;;;5.07;3.10;;;14.70;99.90;;;;;;5135572;27;20111;-76
2021/05/24 12:04:29;;;;;;;13.25;6.80;;;14.70;99.90;;;;;;5130399;27;20066;-77
2021/05/24 12:07:04;;;;;;;5.78;3.85;;;14.80;99.90;;;;;;5135072;27;20039;-76
2021/05/24 12:09:41;;;;;;;12.00;7.93;;;14.80;99.90;;;;;;5136525;27;20096;-77
2021/05/24 12:12:10;;;;;;;8.23;5.50;;;14.80;99.90;;;;;;5135046;27;20066;-78
2021/05/24 12:14:37;;;;;;;8.93;5.47;;;14.70;99.90;;;;;;5145821;27;20041;-78
2021/05/24 12:17:27;;;;;;;5.10;4.13;;;14.80;99.90;;;;;;5128033;27;20511;-75
2021/05/24 12:19:54;;;;;;;4.28;2.60;;;14.90;99.90;;;;;;5123665;27;20047;-77
2021/05/24 12:22:29;;;;;;;3.63;2.72;;;15.00;99.90;;;;;;5149456;27;20034;-77
2021/05/24 12:24:57;;;;;;;3.63;2.25;;;15.00;99.90;;;;;;5151011;27;20037;-76
2021/05/24 12:27:27;;;;;;;3.10;2.30;;;14.90;99.90;;;;;;5136353;27;20034;-75
2021/05/24 12:30:43;;;;;;;3.95;2.25;;;14.70;99.90;;;;;;5118480;27;20635;-78
2021/05/24 12:33:11;;;;;;;4.00;2.33;;;14.60;99.90;;;;;;5135543;27;20035;-76
2021/05/24 12:35:38;;;;;;;4.40;2.25;;;14.40;99.90;;;;;;5121153;27;20027;-78
2021/05/24 12:38:41;;;;;;;3.08;2.35;;;14.30;99.90;;;;;;5119297;27;20058;-75
2021/05/24 12:41:07;;;;;;;5.10;2.15;;;14.20;99.90;;;;;;5133931;27;20051;-78
2021/05/24 12:43:34;;;;;;;3.40;2.33;;;14.10;99.90;;;;;;5116808;27;20053;-79
2021/05/24 12:45:59;;;;;;;2.80;2.13;;;14.10;99.90;;;;;;5121529;27;20062;-81
2021/05/24 12:48:30;;;;;;;4.32;2.10;;;14.10;99.90;;;;;;5134369;27;20059;-79
2021/05/24 12:50:57;;;;;;;3.42;2.15;;;14.10;99.90;;;;;;5128056;27;20038;-77
2021/05/24 12:53:26;;;;;;;3.78;2.00;;;14.20;99.90;;;;;;5143434;27;20372;-75
2021/05/24 12:55:53;;;;;;;5.32;1.90;;;14.10;99.90;;;;;;5122316;27;20467;-77
2021/05/24 12:58:22;;;;;;;3.90;2.00;;;14.10;99.90;;;;;;5134862;27;20038;-78